Time;durP1;ratioP1;P1;durP2;ratioP2;P2;SDS_P1;SDS_P2;PMS_P1;PMS_P2;Temp;Humidity;BMP_temperature;BMP_pressure;BME280_temperature;BME280_humidity;BME280_pressure;Samples;Min_cycle;Max_cycle;Signal;HPM_P1;HPM_P2
2022/08/26 00:00:47;;;;;;;9.85;5.55;;;;;;;21.17;91.98;101349.50;4787574;30;20358;-61
2022/08/26 00:03:14;;;;;;;13.00;6.13;;;;;;;21.11;92.63;101354.28;4787224;30;20050;-62
2022/08/26 00:05:40;;;;;;;14.55;7.00;;;;;;;21.05;93.19;101358.09;4787424;30;20046;-60
2022/08/26 00:08:07;;;;;;;11.13;7.15;;;;;;;21.04;93.11;101361.69;4787202;30;20074;-64
2022/08/26 00:10:32;;;;;;;14.45;7.43;;;;;;;21.04;93.03;101351.06;4787325;30;20077;-64
2022/08/26 00:12:57;;;;;;;15.48;8.93;;;;;;;20.91;93.16;101343.75;4787635;30;20077;-64
2022/08/26 00:15:23;;;;;;;14.80;9.00;;;;;;;20.90;93.56;101360.66;4787482;30;20423;-63
2022/08/26 00:17:50;;;;;;;12.25;9.02;;;;;;;20.85;93.98;101369.69;4787243;30;20285;-62
2022/08/26 00:20:20;;;;;;;13.30;8.38;;;;;;;20.87;93.78;101360.78;4787174;30;20082;-62
2022/08/26 00:22:46;;;;;;;14.18;8.70;;;;;;;20.80;94.07;101355.75;4787242;30;20082;-61
2022/08/26 00:25:11;;;;;;;14.93;9.55;;;;;;;20.78;94.02;101356.78;4787252;30;20071;-63
2022/08/26 00:27:37;;;;;;;16.88;9.32;;;;;;;20.85;94.03;101363.50;4787405;30;20051;-64
2022/08/26 00:30:07;;;;;;;16.15;8.88;;;;;;;20.78;93.94;101368.25;4786967;30;20043;-61
2022/08/26 00:32:33;;;;;;;15.15;8.85;;;;;;;20.75;94.18;101370.22;4786990;30;20172;-62
2022/08/26 00:34:58;;;;;;;14.48;8.85;;;;;;;20.70;94.73;101364.25;4786941;30;20035;-62
2022/08/26 00:37:24;;;;;;;14.27;8.32;;;;;;;20.75;94.24;101364.91;4786985;30;20039;-63
2022/08/26 00:39:49;;;;;;;15.13;8.93;;;;;;;20.70;94.48;101365.13;4787075;30;20063;-60
2022/08/26 00:42:14;;;;;;;15.15;8.05;;;;;;;20.74;94.38;101365.84;4786996;30;20366;-61
2022/08/26 00:44:40;;;;;;;13.50;8.35;;;;;;;20.75;94.15;101372.88;4787072;30;20043;-60
2022/08/26 00:47:14;;;;;;;13.27;8.30;;;;;;;20.73;94.45;101372.94;4786671;30;20054;-62
2022/08/26 00:49:43;;;;;;;18.38;7.80;;;;;;;20.76;94.02;101371.94;4786751;30;20073;-62
2022/08/26 00:52:13;;;;;;;12.82;7.93;;;;;;;20.68;94.60;101366.13;4786740;30;20415;-62
2022/08/26 00:54:45;;;;;;;10.50;7.53;;;;;;;20.66;94.83;101363.53;4786607;30;20070;-60
2022/08/26 00:57:13;;;;;;;12.10;7.10;;;;;;;20.69;94.51;101357.19;4786800;30;20129;-60
2022/08/26 00:59:40;;;;;;;14.68;7.15;;;;;;;20.66;94.85;101362.66;4786684;30;20107;-62
2022/08/26 01:02:05;;;;;;;16.65;7.43;;;;;;;20.69;95.00;101367.84;4785628;30;20469;-62
2022/08/26 01:04:33;;;;;;;11.77;7.22;;;;;;;20.65;94.94;101368.91;4786647;30;20044;-64
2022/08/26 01:06:59;;;;;;;12.30;7.78;;;;;;;20.63;95.14;101374.31;4786614;30;20146;-63
2022/08/26 01:09:24;;;;;;;11.18;7.20;;;;;;;20.60;95.14;101369.16;4786650;30;20139;-61
2022/08/26 01:11:54;;;;;;;14.18;8.13;;;;;;;20.53;95.52;101369.50;4786620;30;20424;-61
2022/08/26 01:14:21;;;;;;;14.93;7.55;;;;;;;20.57;95.38;101374.59;4786500;30;20039;-60
2022/08/26 01:16:47;;;;;;;12.63;7.03;;;;;;;20.62;95.22;101375.22;4786485;30;20039;-62
2022/08/26 01:19:27;;;;;;;12.63;6.95;;;;;;;20.65;94.45;101377.75;4786315;30;20476;-62
2022/08/26 01:21:58;;;;;;;10.57;6.57;;;;;;;20.63;94.98;101373.44;4786589;30;20039;-64
2022/08/26 01:24:26;;;;;;;11.30;6.72;;;;;;;20.53;95.05;101362.38;4786550;30;20089;-63
2022/08/26 01:27:02;;;;;;;10.63;6.72;;;;;;;20.64;94.68;101365.38;4786326;30;20039;-61
2022/08/26 01:29:29;;;;;;;11.98;5.82;;;;;;;20.63;94.30;101363.66;4786330;30;20046;-62
2022/08/26 01:31:56;;;;;;;12.70;6.00;;;;;;;20.64;94.54;101362.72;4786153;30;20460;-62
2022/08/26 01:34:30;;;;;;;11.73;6.10;;;;;;;20.64;94.44;101361.88;4786558;30;20071;-60
2022/08/26 01:37:10;;;;;;;13.73;5.97;;;;;;;20.60;94.10;101361.16;4786272;30;20549;-60
2022/08/26 01:39:36;;;;;;;13.65;6.70;;;;;;;20.58;94.68;101354.19;4786269;30;20043;-61
2022/08/26 01:42:06;;;;;;;8.63;5.32;;;;;;;20.59;94.75;101359.44;4786305;30;20050;-63
2022/08/26 01:44:38;;;;;;;12.02;5.45;;;;;;;20.58;94.71;101363.03;4786106;30;20046;-64
2022/08/26 01:47:06;;;;;;;12.25;4.95;;;;;;;20.60;94.32;101370.94;4786147;30;20138;-64
2022/08/26 01:49:34;;;;;;;8.55;4.85;;;;;;;20.58;94.24;101370.16;4786041;30;20076;-64
2022/08/26 01:52:03;;;;;;;8.02;4.97;;;;;;;20.55;94.42;101372.94;4786072;30;20079;-59
2022/08/26 01:54:29;;;;;;;9.32;4.88;;;;;;;20.56;94.36;101370.22;4786287;30;20055;-61
2022/08/26 01:56:54;;;;;;;9.43;4.50;;;;;;;20.59;93.98;101366.56;4786312;30;20054;-58
2022/08/26 01:59:22;;;;;;;10.38;4.82;;;;;;;20.63;93.76;101368.97;4786360;30;20043;-63
2022/08/26 02:01:48;;;;;;;11.40;4.53;;;;;;;20.60;93.71;101370.94;4786276;30;20040;-60
2022/08/26 02:04:22;;;;;;;9.30;4.70;;;;;;;20.61;93.38;101365.53;4785845;30;20054;-62
2022/08/26 02:06:48;;;;;;;11.07;4.00;;;;;;;20.57;93.52;101365.75;4785918;30;20035;-61
2022/08/26 02:09:15;;;;;;;8.13;3.90;;;;;;;20.52;93.88;101375.75;4786033;30;20047;-61
2022/08/26 02:11:40;;;;;;;8.32;3.70;;;;;;;20.46;94.03;101375.09;4786179;30;20040;-61
2022/08/26 02:14:16;;;;;;;6.68;3.67;;;;;;;20.49;93.42;101376.75;4788103;29;20108;-63
2022/08/26 02:16:44;;;;;;;7.40;2.92;;;;;;;20.52;93.58;101376.59;4789273;30;20083;-61
2022/08/26 02:19:16;;;;;;;7.05;3.28;;;;;;;20.43;93.85;101380.53;4788905;30;20046;-62
2022/08/26 02:21:43;;;;;;;5.75;2.95;;;;;;;20.52;93.36;101387.25;4789198;30;20043;-61
2022/08/26 02:24:15;;;;;;;7.85;2.95;;;;;;;20.48;93.65;101385.66;4789144;30;20051;-61
2022/08/26 02:26:42;;;;;;;7.72;3.03;;;;;;;20.53;93.43;101391.63;4789095;30;20142;-60
2022/08/26 02:29:37;;;;;;;5.60;2.50;;;;;;;20.54;92.49;101395.16;4788925;30;20100;-61
2022/08/26 02:32:05;;;;;;;7.57;2.60;;;;;;;20.52;93.16;101387.25;4788992;30;20034;-60
2022/08/26 02:34:32;;;;;;;8.05;2.72;;;;;;;20.48;92.88;101390.97;4788985;30;20419;-62
2022/08/26 02:37:03;;;;;;;9.02;2.65;;;;;;;20.52;92.53;101405.84;4789009;30;20075;-61
2022/08/26 02:39:30;;;;;;;5.53;2.47;;;;;;;20.48;92.52;101407.78;4788846;30;20053;-61
2022/08/26 02:41:56;;;;;;;6.40;2.38;;;;;;;20.48;92.75;101407.78;4788571;30;20078;-61
2022/08/26 02:44:21;;;;;;;5.47;2.50;;;;;;;20.45;92.44;101393.75;4788999;29;20433;-62
2022/08/26 02:46:47;;;;;;;8.00;2.37;;;;;;;20.40;92.87;101387.81;4788666;30;20126;-65
2022/08/26 02:49:13;;;;;;;7.40;2.50;;;;;;;20.37;92.84;101387.94;4788882;30;20319;-62
2022/08/26 02:51:38;;;;;;;6.30;2.40;;;;;;;20.29;93.30;101380.28;4788772;30;20039;-64
2022/08/26 02:54:03;;;;;;;6.82;2.20;;;;;;;20.26;93.37;101385.72;4788707;30;20075;-60
2022/08/26 02:56:31;;;;;;;6.78;2.25;;;;;;;20.30;93.24;101389.97;4788425;30;20421;-61
2022/08/26 02:58:56;;;;;;;7.15;2.35;;;;;;;20.26;93.63;101396.34;4788527;30;20039;-60
2022/08/26 03:01:25;;;;;;;7.60;2.53;;;;;;;20.24;93.47;101395.59;4788377;30;20049;-61
2022/08/26 03:03:50;;;;;;;9.13;2.75;;;;;;;20.16;93.57;101379.97;4788615;30;20368;-62
2022/08/26 03:06:16;;;;;;;7.00;2.55;;;;;;;20.23;93.54;101387.69;4788454;30;20127;-61
2022/08/26 03:08:42;;;;;;;8.75;2.70;;;;;;;20.20;93.45;101380.69;4788775;30;20051;-63
2022/08/26 03:11:07;;;;;;;7.32;2.70;;;;;;;20.23;93.79;101380.56;4788338;30;20053;-62
2022/08/26 03:13:32;;;;;;;8.55;3.00;;;;;;;20.26;93.51;101390.19;4788403;30;20094;-65
2022/08/26 03:16:00;;;;;;;8.05;3.13;;;;;;;20.22;93.72;101381.50;4788479;30;20071;-61
2022/08/26 03:18:25;;;;;;;7.40;2.97;;;;;;;20.18;94.10;101382.56;4788507;30;20035;-64
2022/08/26 03:20:50;;;;;;;8.00;3.30;;;;;;;20.24;94.08;101392.06;4787996;30;20431;-61
2022/08/26 03:23:16;;;;;;;8.07;3.87;;;;;;;20.12;94.55;101382.81;4788425;30;20506;-62
2022/08/26 03:25:41;;;;;;;8.45;3.72;;;;;;;20.24;94.32;101384.09;4787192;29;20307;-61
2022/08/26 03:28:06;;;;;;;8.75;3.28;;;;;;;20.23;94.63;101385.03;4788057;30;20043;-62
2022/08/26 03:30:41;;;;;;;8.63;4.20;;;;;;;20.21;94.71;101394.84;4788118;30;20122;-61
2022/08/26 03:33:08;;;;;;;12.50;5.05;;;;;;;20.19;94.96;101389.59;4788040;30;20397;-63
2022/08/26 03:35:34;;;;;;;8.60;3.85;;;;;;;20.24;94.73;101392.94;4787983;30;20050;-63
2022/08/26 03:38:01;;;;;;;8.73;4.00;;;;;;;20.28;94.61;101399.81;4787948;30;20043;-62
2022/08/26 03:40:26;;;;;;;5.57;3.60;;;;;;;20.22;94.73;101405.41;4787945;30;20039;-63
2022/08/26 03:42:52;;;;;;;9.50;3.70;;;;;;;20.20;94.88;101398.44;4787705;30;20096;-63
2022/08/26 03:45:18;;;;;;;9.43;3.40;;;;;;;20.21;94.56;101393.06;4787777;30;20074;-61
2022/08/26 03:47:45;;;;;;;6.45;3.10;;;;;;;20.18;94.71;101395.84;4787896;30;20039;-65
2022/08/26 03:50:14;;;;;;;8.55;3.10;;;;;;;20.15;94.78;101399.50;4787265;30;20051;-62
2022/08/26 03:52:39;;;;;;;7.82;2.83;;;;;;;20.22;94.79;101389.47;4787709;30;20039;-62
2022/08/26 03:55:06;;;;;;;6.07;3.40;;;;;;;20.24;94.37;101400.03;4787252;30;20081;-61
2022/08/26 03:57:31;;;;;;;9.00;3.47;;;;;;;20.24;94.46;101406.22;4787524;30;20096;-62
2022/08/26 03:59:57;;;;;;;7.18;3.10;;;;;;;20.27;94.41;101399.88;4787501;30;20421;-61
2022/08/26 04:02:23;;;;;;;8.35;3.15;;;;;;;20.28;94.25;101394.50;4787440;30;20133;-62
2022/08/26 04:04:48;;;;;;;7.95;3.20;;;;;;;20.24;94.15;101392.94;4787485;30;20059;-61
2022/08/26 04:07:14;;;;;;;10.07;3.17;;;;;;;20.23;93.88;101396.50;4787371;30;20108;-62
2022/08/26 04:09:39;;;;;;;7.68;2.95;;;;;;;20.22;94.29;101405.41;4787488;30;20050;-62
2022/08/26 04:12:05;;;;;;;7.90;2.50;;;;;;;20.17;94.54;101405.63;4787291;30;20456;-62
2022/08/26 04:14:31;;;;;;;9.95;3.40;;;;;;;20.19;94.57;101400.22;4787142;30;20476;-61
2022/08/26 04:16:57;;;;;;;5.57;2.70;;;;;;;20.19;94.66;101396.72;4787403;30;20039;-65
2022/08/26 04:19:23;;;;;;;9.75;2.90;;;;;;;20.16;94.62;101406.53;4787324;30;20066;-63
2022/08/26 04:21:51;;;;;;;7.30;3.15;;;;;;;20.15;94.82;101393.31;4787283;30;20043;-60
2022/08/26 04:24:18;;;;;;;8.52;3.22;;;;;;;20.15;94.68;101398.63;4787233;30;20040;-64
2022/08/26 04:26:43;;;;;;;8.32;3.05;;;;;;;20.09;94.85;101391.78;4786754;30;20368;-64
2022/08/26 04:29:16;;;;;;;9.23;3.30;;;;;;;20.09;94.96;101390.91;4787139;30;20050;-60
2022/08/26 04:31:41;;;;;;;7.97;2.92;;;;;;;20.02;95.27;101393.00;4787173;30;20069;-64
2022/08/26 04:34:07;;;;;;;11.63;3.47;;;;;;;20.02;95.45;101393.00;4787161;30;20437;-62
2022/08/26 04:36:33;;;;;;;7.18;3.00;;;;;;;19.97;95.60;101388.81;4786839;29;20081;-62
2022/08/26 04:39:00;;;;;;;8.73;2.90;;;;;;;19.98;95.80;101387.88;4786753;30;20130;-62
2022/08/26 04:41:25;;;;;;;8.10;2.85;;;;;;;19.96;95.82;101395.91;4786886;30;20487;-62
2022/08/26 04:43:50;;;;;;;7.18;2.83;;;;;;;19.96;95.76;101397.72;4786850;30;20043;-62
2022/08/26 04:46:20;;;;;;;6.85;2.95;;;;;;;19.98;95.65;101404.69;4786860;30;20035;-62
2022/08/26 04:48:46;;;;;;;10.65;3.05;;;;;;;19.98;95.80;101404.69;4786781;30;20088;-62
2022/08/26 04:51:11;;;;;;;6.75;2.70;;;;;;;20.00;95.85;101408.16;4786801;30;20043;-63
2022/08/26 04:53:37;;;;;;;5.60;2.50;;;;;;;20.04;95.71;101398.25;4786410;30;20515;-62
2022/08/26 04:56:03;;;;;;;6.97;2.55;;;;;;;20.01;95.57;101404.56;4786703;30;20039;-62
2022/08/26 04:58:28;;;;;;;6.43;2.50;;;;;;;20.09;95.30;101404.22;4786655;30;20441;-62
2022/08/26 05:00:55;;;;;;;8.13;2.90;;;;;;;20.04;95.67;101409.75;4786355;30;20097;-61
2022/08/26 05:03:22;;;;;;;7.38;2.35;;;;;;;20.02;95.62;101398.31;4786691;30;20031;-62
2022/08/26 05:05:48;;;;;;;9.82;2.60;;;;;;;20.08;94.89;101411.34;4786695;30;20042;-61
2022/08/26 05:08:16;;;;;;;7.60;2.67;;;;;;;20.05;95.47;101410.63;4786423;30;20473;-61
2022/08/26 05:10:43;;;;;;;6.57;2.63;;;;;;;20.06;95.40;101415.88;4786493;30;20521;-62
2022/08/26 05:13:11;;;;;;;6.07;2.60;;;;;;;20.08;95.27;101416.66;4786654;30;20047;-61
2022/08/26 05:15:36;;;;;;;7.55;2.30;;;;;;;20.01;95.40;101403.69;4786659;30;20059;-62
2022/08/26 05:18:03;;;;;;;6.55;2.40;;;;;;;20.04;95.38;101409.75;4786626;30;20122;-64
2022/08/26 05:20:28;;;;;;;6.88;2.90;;;;;;;20.07;95.28;101406.09;4786521;30;20074;-62
2022/08/26 05:22:54;;;;;;;8.82;2.80;;;;;;;19.99;95.36;101414.38;4786399;30;20075;-63
2022/08/26 05:25:19;;;;;;;7.60;3.00;;;;;;;19.98;95.87;101410.00;4786576;30;20540;-63
2022/08/26 05:27:44;;;;;;;6.43;2.28;;;;;;;19.99;95.39;101411.72;4786309;30;20273;-62
2022/08/26 05:30:10;;;;;;;5.38;2.35;;;;;;;20.00;95.42;101409.94;4786639;30;20046;-65
2022/08/26 05:32:35;;;;;;;10.02;2.55;;;;;;;20.01;95.63;101409.00;4786621;30;20055;-63
2022/08/26 05:35:00;;;;;;;6.13;2.40;;;;;;;20.04;95.19;101408.88;4786314;30;20160;-62
2022/08/26 05:37:26;;;;;;;7.07;2.50;;;;;;;20.04;95.36;101411.53;4786341;30;20043;-62
2022/08/26 05:39:51;;;;;;;4.72;2.28;;;;;;;20.10;94.48;101411.25;4786331;30;20039;-62
2022/08/26 05:42:18;;;;;;;8.63;2.50;;;;;;;20.08;94.83;101416.66;4786338;30;20032;-60
2022/08/26 05:44:44;;;;;;;7.38;2.45;;;;;;;20.04;94.70;101414.19;4786420;30;20568;-64
2022/08/26 05:47:09;;;;;;;8.93;2.67;;;;;;;20.15;94.98;101426.06;4786332;29;20042;-61
2022/08/26 05:49:34;;;;;;;8.55;2.17;;;;;;;20.14;94.76;101432.31;4789129;30;20039;-62
2022/08/26 05:51:59;;;;;;;6.93;2.35;;;;;;;20.20;94.37;101425.88;4789696;30;20054;-63
2022/08/26 05:54:25;;;;;;;8.63;2.40;;;;;;;20.28;94.01;101441.47;4789636;30;20059;-63
2022/08/26 05:56:50;;;;;;;9.32;2.40;;;;;;;20.23;94.17;101441.69;4789599;30;20265;-64
2022/08/26 05:59:16;;;;;;;6.63;2.30;;;;;;;20.20;94.37;101446.28;4789664;30;20067;-59
2022/08/26 06:01:42;;;;;;;8.20;2.50;;;;;;;20.22;94.54;101439.97;4789580;30;20039;-62
2022/08/26 06:04:08;;;;;;;6.53;2.10;;;;;;;20.26;93.97;101446.84;4789393;30;20043;-63
2022/08/26 06:06:35;;;;;;;8.07;2.05;;;;;;;20.26;94.39;101465.47;4789316;30;20043;-61
2022/08/26 06:09:04;;;;;;;10.10;2.30;;;;;;;20.35;93.94;101461.56;4789393;30;20050;-62
2022/08/26 06:11:31;;;;;;;6.57;2.10;;;;;;;20.34;93.83;101463.34;4789487;30;20070;-61
2022/08/26 06:14:00;;;;;;;6.35;2.03;;;;;;;20.37;93.59;101457.94;4789415;30;20043;-60
2022/08/26 06:16:26;;;;;;;7.38;1.95;;;;;;;20.40;93.53;101460.47;4789367;30;20035;-62
2022/08/26 06:18:52;;;;;;;8.35;2.08;;;;;;;20.40;93.12;101468.44;4789298;30;20143;-61
2022/08/26 06:21:31;;;;;;;6.07;1.90;;;;;;;20.42;92.82;101457.72;4788812;30;20114;-62
2022/08/26 06:26:52;;;;;;;5.25;1.77;;;;;;;20.46;92.34;101470.78;4789227;30;20109;-61
2022/08/26 06:29:20;;;;;;;5.25;1.80;;;;;;;20.47;92.45;101469.88;4789026;30;20111;-61
2022/08/26 06:31:46;;;;;;;9.90;1.80;;;;;;;20.52;91.94;101471.47;4789063;30;20077;-64
2022/08/26 06:34:11;;;;;;;6.70;1.75;;;;;;;20.62;91.46;101476.28;4788988;30;20039;-63
2022/08/26 06:36:40;;;;;;;7.72;1.60;;;;;;;20.60;91.45;101475.53;4789054;30;20047;-62
2022/08/26 06:39:08;;;;;;;5.05;1.55;;;;;;;20.61;90.92;101479.03;4788996;30;20035;-60
2022/08/26 06:41:35;;;;;;;4.07;1.60;;;;;;;20.58;91.41;101480.03;4789109;30;20062;-61
2022/08/26 06:44:02;;;;;;;6.65;1.60;;;;;;;20.60;91.01;101472.00;4788676;30;20047;-62
2022/08/26 06:46:28;;;;;;;8.18;1.73;;;;;;;20.69;90.78;101479.56;4788484;30;20047;-63
2022/08/26 06:48:54;;;;;;;6.68;1.55;;;;;;;20.70;90.84;101481.28;4788738;30;20084;-61
2022/08/26 06:51:23;;;;;;;4.97;1.33;;;;;;;20.77;90.58;101485.41;4788537;30;20047;-61
2022/08/26 06:53:51;;;;;;;5.63;1.92;;;;;;;20.78;89.77;101471.16;4788343;30;20487;-62
2022/08/26 06:56:20;;;;;;;5.53;1.60;;;;;;;20.66;90.18;101459.28;4788627;30;20039;-61
2022/08/26 06:58:46;;;;;;;8.77;1.50;;;;;;;20.84;89.88;101479.72;4788601;29;20071;-65
2022/08/26 07:01:19;;;;;;;5.35;1.45;;;;;;;20.84;89.69;101481.50;4787898;30;20097;-62
2022/08/26 07:03:46;;;;;;;8.85;1.75;;;;;;;20.73;89.59;101475.81;4788126;30;20051;-62
2022/08/26 07:06:11;;;;;;;4.55;1.65;;;;;;;20.83;89.38;101485.09;4788484;30;20051;-63
2022/08/26 07:08:37;;;;;;;4.25;1.75;;;;;;;20.86;89.16;101477.00;4788559;30;20055;-64
2022/08/26 07:11:07;;;;;;;8.40;1.70;;;;;;;20.88;88.76;101479.56;4787897;30;20055;-66
2022/08/26 07:13:36;;;;;;;5.63;1.40;;;;;;;20.95;88.06;101479.25;4788305;30;20054;-60
2022/08/26 07:16:06;;;;;;;7.68;1.90;;;;;;;20.99;88.26;101478.13;4788261;30;20050;-63
2022/08/26 07:18:34;;;;;;;8.75;1.77;;;;;;;21.06;87.79;101481.38;4788281;30;20051;-63
2022/08/26 07:21:04;;;;;;;7.13;1.58;;;;;;;21.10;87.35;101481.19;4787911;30;20130;-62
2022/08/26 07:23:31;;;;;;;4.72;1.70;;;;;;;21.15;86.90;101489.78;4788196;30;20135;-62
2022/08/26 07:25:56;;;;;;;8.52;1.58;;;;;;;21.22;86.43;101487.75;4788098;30;20074;-62
2022/08/26 07:28:22;;;;;;;6.07;1.88;;;;;;;21.28;85.61;101495.44;4787994;30;20089;-65
2022/08/26 07:30:48;;;;;;;8.40;1.73;;;;;;;21.30;85.64;101487.41;4788006;30;20131;-62
2022/08/26 07:33:13;;;;;;;4.80;1.40;;;;;;;21.32;85.44;101485.50;4788105;30;20054;-62
2022/08/26 07:35:39;;;;;;;6.63;1.45;;;;;;;21.34;85.19;101494.28;4788080;30;20036;-62
2022/08/26 07:38:04;;;;;;;5.35;1.40;;;;;;;21.40;84.61;101488.66;4787886;30;20039;-62
2022/08/26 07:40:30;;;;;;;4.60;1.33;;;;;;;21.44;84.48;101495.56;4787791;30;20030;-62
2022/08/26 07:42:56;;;;;;;6.90;1.30;;;;;;;21.49;84.27;101497.06;4787634;30;20136;-62
2022/08/26 07:45:22;;;;;;;3.95;1.20;;;;;;;21.59;83.43;101504.63;4787693;30;20039;-62
2022/08/26 07:47:47;;;;;;;8.52;1.30;;;;;;;21.71;81.81;101507.53;4787484;30;20134;-62
2022/08/26 07:50:12;;;;;;;5.85;1.52;;;;;;;21.77;81.41;101504.59;4787477;30;20039;-61
2022/08/26 07:52:38;;;;;;;6.00;1.38;;;;;;;21.83;80.59;101501.59;4787647;30;20043;-65
2022/08/26 07:55:06;;;;;;;4.70;1.50;;;;;;;21.83;80.95;101498.06;4787664;30;20117;-61
2022/08/26 07:57:32;;;;;;;7.32;1.40;;;;;;;21.74;80.55;101515.38;4787718;30;20042;-61
2022/08/26 07:59:58;;;;;;;6.38;1.80;;;;;;;21.67;80.73;101508.63;4787327;30;20399;-62
2022/08/26 08:02:25;;;;;;;7.05;1.30;;;;;;;21.68;81.35;101513.00;4787672;30;20043;-62
2022/08/26 08:04:51;;;;;;;9.40;1.83;;;;;;;21.73;81.00;101519.00;4787418;30;20200;-61
2022/08/26 08:07:16;;;;;;;8.57;1.60;;;;;;;21.80;80.97;101519.56;4787415;30;20499;-62
2022/08/26 08:09:41;;;;;;;6.85;1.50;;;;;;;21.84;80.56;101511.31;4787189;30;20054;-58
2022/08/26 08:12:08;;;;;;;5.40;1.50;;;;;;;21.84;80.19;101519.31;4787150;29;20387;-61
2022/08/26 08:14:35;;;;;;;8.18;1.90;;;;;;;21.84;80.71;101521.13;4787414;30;20035;-62
2022/08/26 08:17:01;;;;;;;8.48;1.60;;;;;;;21.91;80.56;101519.03;4787258;30;20047;-63
2022/08/26 08:19:26;;;;;;;7.95;1.90;;;;;;;21.96;79.65;101517.88;4787326;30;20047;-62
2022/08/26 08:21:51;;;;;;;6.10;1.77;;;;;;;21.94;79.16;101518.88;4787214;30;20446;-62
2022/08/26 08:24:17;;;;;;;5.68;1.48;;;;;;;21.98;78.96;101518.66;4786981;30;20292;-63
2022/08/26 08:26:44;;;;;;;5.28;1.40;;;;;;;22.01;78.10;101517.63;4787178;30;20121;-61
2022/08/26 08:29:10;;;;;;;5.65;1.20;;;;;;;22.02;77.92;101524.69;4787098;30;20047;-62
2022/08/26 08:31:36;;;;;;;3.40;1.20;;;;;;;22.00;77.63;101510.59;4787132;30;20058;-62
2022/08/26 08:34:02;;;;;;;8.02;1.48;;;;;;;22.00;77.58;101521.25;4787196;30;20369;-63
2022/08/26 08:36:28;;;;;;;4.38;1.30;;;;;;;22.08;77.88;101519.06;4787022;30;20143;-65
2022/08/26 08:38:53;;;;;;;5.57;1.35;;;;;;;22.15;77.40;101523.16;4786747;30;20085;-62
2022/08/26 08:41:42;;;;;;;5.93;1.20;;;;;;;22.12;77.83;101517.97;4786828;30;20058;-65
2022/08/26 08:44:13;;;;;;;4.60;1.27;;;;;;;22.24;77.28;101528.00;4786940;30;20043;-61
2022/08/26 08:46:41;;;;;;;5.00;1.27;;;;;;;22.33;76.00;101521.38;4786997;30;20071;-64
2022/08/26 08:49:07;;;;;;;6.85;1.15;;;;;;;22.34;75.93;101515.91;4785779;30;20433;-63
2022/08/26 08:51:50;;;;;;;4.50;1.10;;;;;;;22.27;76.03;101519.88;4770704;30;20374;-64
2022/08/26 08:54:16;;;;;;;8.10;1.30;;;;;;;22.25;75.38;101519.06;4786610;30;20055;-60
2022/08/26 08:56:48;;;;;;;4.35;1.10;;;;;;;22.25;75.78;101527.06;4786729;30;20356;-62
2022/08/26 08:59:30;;;;;;;4.78;1.30;;;;;;;22.25;76.59;101527.06;4786685;30;20035;-62
2022/08/26 09:02:18;;;;;;;6.13;1.13;;;;;;;22.31;76.20;101520.56;4786124;30;20119;-60
2022/08/26 09:05:09;;;;;;;4.40;1.40;;;;;;;22.21;75.39;101507.69;4786490;30;20122;-61
2022/08/26 09:08:08;;;;;;;6.85;1.58;;;;;;;22.28;75.18;101513.59;4786568;30;20039;-61
2022/08/26 09:10:45;;;;;;;6.93;1.50;;;;;;;22.32;74.57;101530.31;4786505;30;20082;-63
2022/08/26 09:13:14;;;;;;;3.40;1.02;;;;;;;22.28;74.50;101532.25;4786468;30;20054;-63
2022/08/26 09:15:45;;;;;;;5.13;1.30;;;;;;;22.43;74.62;101528.78;4786539;30;20504;-62
2022/08/26 09:18:32;;;;;;;3.20;1.10;;;;;;;22.53;73.96;101532.69;4786480;30;20103;-62
2022/08/26 09:21:06;;;;;;;5.03;1.20;;;;;;;22.61;73.65;101523.44;4786390;30;20138;-62
2022/08/26 09:23:35;;;;;;;6.28;1.30;;;;;;;22.56;73.49;101529.88;4787827;29;20045;-62
2022/08/26 09:26:13;;;;;;;4.28;1.15;;;;;;;22.61;73.42;101523.44;4790181;30;20472;-62
2022/08/26 09:28:41;;;;;;;2.58;1.17;;;;;;;22.71;72.84;101540.69;4789826;30;20066;-63
2022/08/26 09:31:34;;;;;;;6.55;1.40;;;;;;;22.81;73.23;101528.63;4790148;30;20112;-64
2022/08/26 09:34:14;;;;;;;6.07;1.30;;;;;;;22.72;72.41;101537.94;4790120;30;20039;-62
2022/08/26 09:36:42;;;;;;;4.63;1.00;;;;;;;22.54;71.55;101531.75;4790244;30;20039;-61
2022/08/26 09:39:25;;;;;;;4.55;1.17;;;;;;;22.39;72.50;101545.03;4789926;30;20039;-62
2022/08/26 09:42:12;;;;;;;4.28;1.20;;;;;;;22.25;73.14;101543.06;4789706;30;20039;-62
2022/08/26 09:44:57;;;;;;;5.10;1.42;;;;;;;22.26;73.90;101547.47;4789998;30;20078;-63
2022/08/26 09:47:29;;;;;;;6.22;1.65;;;;;;;22.11;73.92;101542.91;4789906;30;20041;-62
2022/08/26 09:50:08;;;;;;;6.78;1.30;;;;;;;22.03;74.24;101542.41;4789767;30;20035;-63
2022/08/26 09:52:33;;;;;;;7.45;1.27;;;;;;;22.08;74.22;101551.94;4789691;30;20039;-61
2022/08/26 09:55:13;;;;;;;4.47;1.08;;;;;;;22.14;74.02;101550.75;4789533;30;20366;-62
2022/08/26 09:57:57;;;;;;;4.82;1.30;;;;;;;22.20;74.05;101550.44;4789358;30;20100;-63
2022/08/26 10:00:30;;;;;;;6.25;1.25;;;;;;;22.20;73.79;101547.78;4789334;30;20369;-64
2022/08/26 10:02:58;;;;;;;5.78;1.10;;;;;;;22.15;73.56;101542.69;4789597;30;20031;-62
2022/08/26 10:05:55;;;;;;;5.45;1.38;;;;;;;22.34;73.40;101552.44;4789318;30;20043;-63
2022/08/26 10:08:26;;;;;;;5.93;1.15;;;;;;;22.54;72.80;101542.44;4789391;30;20046;-61
2022/08/26 10:10:54;;;;;;;8.05;1.40;;;;;;;22.72;72.30;101545.06;4789550;30;20057;-60
2022/08/26 10:13:28;;;;;;;11.82;1.42;;;;;;;22.80;71.96;101548.25;4789282;30;20522;-62
2022/08/26 10:16:10;;;;;;;6.95;1.35;;;;;;;22.71;72.31;101546.00;4789311;30;20040;-63
2022/08/26 10:18:46;;;;;;;6.95;1.25;;;;;;;22.64;72.50;101545.50;4789353;30;20066;-60
2022/08/26 10:21:16;;;;;;;4.57;1.10;;;;;;;22.67;71.80;101545.34;4789148;30;20134;-62
2022/08/26 10:23:47;;;;;;;4.70;1.20;;;;;;;22.52;71.47;101530.97;4789045;30;20173;-60
2022/08/26 10:26:21;;;;;;;3.70;1.00;;;;;;;22.51;71.50;101547.91;4788918;30;20062;-64
2022/08/26 10:28:53;;;;;;;4.45;1.23;;;;;;;22.44;71.76;101543.00;4789068;30;20406;-60
2022/08/26 10:31:27;;;;;;;7.32;1.42;;;;;;;22.51;71.75;101539.91;4788957;30;20522;-59
2022/08/26 10:33:54;;;;;;;5.50;1.17;;;;;;;22.56;71.70;101543.22;4788741;29;20125;-65
2022/08/26 10:39:18;;;;;;;5.28;1.13;;;;;;;22.43;72.43;101542.13;4789265;30;20123;-62
2022/08/26 10:41:46;;;;;;;4.53;1.00;;;;;;;22.38;72.33;101538.81;4788776;30;20108;-62
2022/08/26 10:44:14;;;;;;;3.78;1.10;;;;;;;22.47;72.22;101543.72;4788945;30;20039;-59
2022/08/26 10:46:44;;;;;;;4.43;1.10;;;;;;;22.49;71.80;101543.63;4788953;30;20043;-59
2022/08/26 10:49:14;;;;;;;6.18;1.23;;;;;;;22.45;71.50;101542.06;4788782;30;20126;-60
2022/08/26 10:51:46;;;;;;;5.55;1.20;;;;;;;22.34;72.09;101534.59;4788912;30;20088;-64
2022/08/26 10:55:01;;;;;;;3.72;1.17;;;;;;;22.32;72.17;101541.84;4788520;30;20059;-61
2022/08/26 10:57:42;;;;;;;4.22;1.10;;;;;;;22.21;72.69;101541.50;4788752;30;20125;-60
2022/08/26 11:03:06;;;;;;;2.95;0.95;;;;;;;22.11;72.46;101551.78;4788317;30;20066;-61
2022/08/26 11:05:31;;;;;;;4.72;1.15;;;;;;;22.08;72.60;101551.94;4788556;30;20134;-61
2022/08/26 11:08:15;;;;;;;7.38;1.23;;;;;;;22.11;73.17;101548.25;4788278;30;20533;-62
2022/08/26 11:10:41;;;;;;;4.53;1.17;;;;;;;22.02;73.08;101552.22;4788565;30;20599;-62
2022/08/26 11:13:06;;;;;;;9.60;1.60;;;;;;;22.02;73.48;101549.56;4788471;30;20046;-60
2022/08/26 11:15:31;;;;;;;4.75;1.30;;;;;;;22.05;73.46;101548.53;4788407;30;20086;-62
2022/08/26 11:17:59;;;;;;;4.90;1.00;;;;;;;22.03;73.11;101543.28;4788155;30;20039;-62
2022/08/26 11:20:34;;;;;;;4.53;1.00;;;;;;;22.06;72.88;101552.94;4788441;30;20035;-60
2022/08/26 11:23:11;;;;;;;3.53;1.08;;;;;;;22.00;72.85;101537.25;4788277;30;20096;-63
2022/08/26 11:25:54;;;;;;;2.80;0.80;;;;;;;22.18;73.02;101542.50;4788053;30;20046;-62
2022/08/26 11:28:44;;;;;;;7.32;1.33;;;;;;;22.14;73.17;101543.63;4788240;30;20046;-61
2022/08/26 11:31:19;;;;;;;4.88;1.20;;;;;;;22.22;72.40;101544.09;4787741;30;20054;-60
2022/08/26 11:33:55;;;;;;;2.85;0.95;;;;;;;22.15;72.53;101520.50;4787997;30;20574;-61
2022/08/26 11:36:33;;;;;;;5.90;1.15;;;;;;;22.39;72.54;101545.91;4787940;30;20031;-60
2022/08/26 11:39:00;;;;;;;4.97;0.98;;;;;;;22.38;72.21;101543.31;4787795;30;20047;-59
2022/08/26 11:41:28;;;;;;;4.75;1.25;;;;;;;22.44;71.92;101545.66;4787885;30;20039;-63